Mount Sherman, Arkansas
Current Conditions -  °F | °C
As of 8:53 PM on Saturday 25 Oct 2014 (Local Time) from KHRO Reporting Station
Clear Clear  
Wind Chill: 67°   Ceiling: Unl
Heat Index: 67°   Visibility: 10mi
Dew Point: 61°   Wind: 6mph
Humidity: 81%   Direction: 240°WSW
Pressure: 30.06"   Gusts: NA
Location:  36.0047°N, 93.218°W
Report Text: KHRO 260153Z AUTO 24005KT 10SM CLR 19/16 A3006 RMK AO2 SLP167 T01940161
Loading
Personal Weather Stations






























Interactive Weather Map
Tropical Storm Tracking
New forecast layout! Learn more

10-Day Weather Forecast

Advertisements
Track Severe Weather on mobile